sensor_id;sensor_type;location;lat;lon;timestamp;P1;durP1;ratioP1;P2;durP2;ratioP2
53751;SDS011;41095;53.090;6.692;2022-12-10T00:01:22;37.85;;;24.17;;
53751;SDS011;41095;53.090;6.692;2022-12-10T00:03:50;39.00;;;24.50;;
53751;SDS011;41095;53.090;6.692;2022-12-10T00:06:17;45.85;;;26.10;;
53751;SDS011;41095;53.090;6.692;2022-12-10T00:08:44;46.70;;;25.17;;
53751;SDS011;41095;53.090;6.692;2022-12-10T00:11:11;41.65;;;26.70;;
53751;SDS011;41095;53.090;6.692;2022-12-10T00:13:38;38.30;;;24.08;;
53751;SDS011;41095;53.090;6.692;2022-12-10T00:16:06;38.55;;;25.70;;
53751;SDS011;41095;53.090;6.692;2022-12-10T00:18:33;44.40;;;24.95;;
53751;SDS011;41095;53.090;6.692;2022-12-10T00:21:02;40.92;;;24.67;;
53751;SDS011;41095;53.090;6.692;2022-12-10T00:23:29;45.90;;;27.50;;
53751;SDS011;41095;53.090;6.692;2022-12-10T00:26:04;44.22;;;26.58;;
53751;SDS011;41095;53.090;6.692;2022-12-10T00:28:34;41.47;;;25.60;;
53751;SDS011;41095;53.090;6.692;2022-12-10T00:31:04;46.13;;;29.50;;
53751;SDS011;41095;53.090;6.692;2022-12-10T00:33:36;40.72;;;25.08;;
53751;SDS011;41095;53.090;6.692;2022-12-10T00:36:03;39.67;;;25.42;;
53751;SDS011;41095;53.090;6.692;2022-12-10T00:38:36;44.05;;;28.20;;
53751;SDS011;41095;53.090;6.692;2022-12-10T00:41:03;40.90;;;23.77;;
53751;SDS011;41095;53.090;6.692;2022-12-10T00:43:29;45.88;;;25.52;;
53751;SDS011;41095;53.090;6.692;2022-12-10T00:45:55;40.95;;;26.23;;
53751;SDS011;41095;53.090;6.692;2022-12-10T00:48:21;52.20;;;26.73;;
53751;SDS011;41095;53.090;6.692;2022-12-10T00:51:03;42.38;;;24.73;;
53751;SDS011;41095;53.090;6.692;2022-12-10T00:53:35;43.45;;;24.92;;
53751;SDS011;41095;53.090;6.692;2022-12-10T00:56:02;43.55;;;26.75;;
53751;SDS011;41095;53.090;6.692;2022-12-10T00:58:29;39.72;;;26.13;;
53751;SDS011;41095;53.090;6.692;2022-12-10T01:01:56;46.65;;;27.75;;
53751;SDS011;41095;53.090;6.692;2022-12-10T01:03:52;41.30;;;24.98;;
53751;SDS011;41095;53.090;6.692;2022-12-10T01:06:23;47.58;;;26.35;;
53751;SDS011;41095;53.090;6.692;2022-12-10T01:08:55;38.72;;;24.40;;
53751;SDS011;41095;53.090;6.692;2022-12-10T01:11:24;41.75;;;24.52;;
53751;SDS011;41095;53.090;6.692;2022-12-10T01:13:55;41.65;;;26.15;;
53751;SDS011;41095;53.090;6.692;2022-12-10T01:16:21;36.88;;;22.88;;
53751;SDS011;41095;53.090;6.692;2022-12-10T01:18:48;43.83;;;26.13;;
53751;SDS011;41095;53.090;6.692;2022-12-10T01:21:15;41.83;;;25.95;;
53751;SDS011;41095;53.090;6.692;2022-12-10T01:23:43;43.40;;;24.52;;
53751;SDS011;41095;53.090;6.692;2022-12-10T01:26:12;42.65;;;25.52;;
53751;SDS011;41095;53.090;6.692;2022-12-10T01:28:40;40.83;;;25.40;;
53751;SDS011;41095;53.090;6.692;2022-12-10T01:31:11;37.00;;;22.58;;
53751;SDS011;41095;53.090;6.692;2022-12-10T01:33:38;34.95;;;22.80;;
53751;SDS011;41095;53.090;6.692;2022-12-10T01:36:06;46.88;;;26.42;;
53751;SDS011;41095;53.090;6.692;2022-12-10T01:38:34;43.97;;;25.83;;
53751;SDS011;41095;53.090;6.692;2022-12-10T01:41:00;44.28;;;28.88;;
53751;SDS011;41095;53.090;6.692;2022-12-10T01:43:26;43.92;;;28.00;;
53751;SDS011;41095;53.090;6.692;2022-12-10T01:45:52;37.33;;;23.55;;
53751;SDS011;41095;53.090;6.692;2022-12-10T01:48:19;45.90;;;27.42;;
53751;SDS011;41095;53.090;6.692;2022-12-10T01:50:44;38.75;;;23.77;;
53751;SDS011;41095;53.090;6.692;2022-12-10T01:53:11;42.42;;;26.27;;
53751;SDS011;41095;53.090;6.692;2022-12-10T01:55:48;49.40;;;28.38;;
53751;SDS011;41095;53.090;6.692;2022-12-10T01:58:16;38.88;;;25.77;;
53751;SDS011;41095;53.090;6.692;2022-12-10T02:00:46;42.95;;;29.38;;
53751;SDS011;41095;53.090;6.692;2022-12-10T02:03:51;47.67;;;27.75;;
53751;SDS011;41095;53.090;6.692;2022-12-10T02:09:25;49.55;;;30.92;;
53751;SDS011;41095;53.090;6.692;2022-12-10T02:17:26;38.97;;;26.27;;
53751;SDS011;41095;53.090;6.692;2022-12-10T02:20:18;44.45;;;28.27;;
53751;SDS011;41095;53.090;6.692;2022-12-10T02:25:17;42.28;;;27.88;;
53751;SDS011;41095;53.090;6.692;2022-12-10T02:27:56;50.33;;;31.40;;
53751;SDS011;41095;53.090;6.692;2022-12-10T02:30:30;43.40;;;27.38;;
53751;SDS011;41095;53.090;6.692;2022-12-10T02:32:58;48.47;;;29.23;;
53751;SDS011;41095;53.090;6.692;2022-12-10T02:35:28;42.70;;;28.88;;
53751;SDS011;41095;53.090;6.692;2022-12-10T02:38:31;47.67;;;26.65;;
53751;SDS011;41095;53.090;6.692;2022-12-10T02:40:52;50.63;;;28.50;;
53751;SDS011;41095;53.090;6.692;2022-12-10T02:43:24;42.25;;;27.00;;
53751;SDS011;41095;53.090;6.692;2022-12-10T02:45:52;47.28;;;31.10;;
53751;SDS011;41095;53.090;6.692;2022-12-10T02:48:20;50.00;;;31.35;;
53751;SDS011;41095;53.090;6.692;2022-12-10T02:50:45;47.40;;;27.98;;
53751;SDS011;41095;53.090;6.692;2022-12-10T02:53:11;48.40;;;30.63;;
53751;SDS011;41095;53.090;6.692;2022-12-10T02:56:04;47.22;;;29.48;;
53751;SDS011;41095;53.090;6.692;2022-12-10T03:06:36;44.33;;;28.80;;
53751;SDS011;41095;53.090;6.692;2022-12-10T03:09:09;41.92;;;30.65;;
53751;SDS011;41095;53.090;6.692;2022-12-10T03:11:40;48.55;;;29.45;;
53751;SDS011;41095;53.090;6.692;2022-12-10T03:14:13;43.95;;;27.70;;
53751;SDS011;41095;53.090;6.692;2022-12-10T03:16:50;49.85;;;31.92;;
53751;SDS011;41095;53.090;6.692;2022-12-10T03:19:20;50.35;;;28.05;;
53751;SDS011;41095;53.090;6.692;2022-12-10T03:21:49;46.80;;;28.67;;
53751;SDS011;41095;53.090;6.692;2022-12-10T03:24:16;49.03;;;30.25;;
53751;SDS011;41095;53.090;6.692;2022-12-10T03:26:43;49.97;;;30.23;;
53751;SDS011;41095;53.090;6.692;2022-12-10T03:29:15;48.00;;;30.33;;
53751;SDS011;41095;53.090;6.692;2022-12-10T03:31:46;49.85;;;28.48;;
53751;SDS011;41095;53.090;6.692;2022-12-10T03:34:12;51.38;;;28.80;;
53751;SDS011;41095;53.090;6.692;2022-12-10T03:36:39;53.50;;;30.98;;
53751;SDS011;41095;53.090;6.692;2022-12-10T03:39:07;49.13;;;31.23;;
53751;SDS011;41095;53.090;6.692;2022-12-10T03:41:33;46.30;;;28.92;;
53751;SDS011;41095;53.090;6.692;2022-12-10T03:43:59;44.45;;;27.42;;
53751;SDS011;41095;53.090;6.692;2022-12-10T03:46:26;51.40;;;31.60;;
53751;SDS011;41095;53.090;6.692;2022-12-10T03:48:54;54.40;;;30.92;;
53751;SDS011;41095;53.090;6.692;2022-12-10T03:51:20;49.22;;;29.70;;
53751;SDS011;41095;53.090;6.692;2022-12-10T03:53:46;46.97;;;28.13;;
53751;SDS011;41095;53.090;6.692;2022-12-10T03:56:14;48.42;;;29.73;;
53751;SDS011;41095;53.090;6.692;2022-12-10T03:58:40;42.03;;;28.90;;
53751;SDS011;41095;53.090;6.692;2022-12-10T04:01:06;50.92;;;30.73;;
53751;SDS011;41095;53.090;6.692;2022-12-10T04:03:36;55.90;;;32.50;;
53751;SDS011;41095;53.090;6.692;2022-12-10T04:06:04;54.40;;;30.92;;
53751;SDS011;41095;53.090;6.692;2022-12-10T04:08:31;40.40;;;27.27;;
53751;SDS011;41095;53.090;6.692;2022-12-10T04:11:01;48.70;;;28.58;;
53751;SDS011;41095;53.090;6.692;2022-12-10T04:13:31;44.05;;;27.58;;
53751;SDS011;41095;53.090;6.692;2022-12-10T04:16:17;51.83;;;32.60;;
53751;SDS011;41095;53.090;6.692;2022-12-10T04:18:53;57.13;;;32.63;;
53751;SDS011;41095;53.090;6.692;2022-12-10T04:21:31;55.60;;;30.92;;
53751;SDS011;41095;53.090;6.692;2022-12-10T04:24:17;41.78;;;27.02;;
53751;SDS011;41095;53.090;6.692;2022-12-10T04:27:05;53.78;;;32.97;;
53751;SDS011;41095;53.090;6.692;2022-12-10T04:29:36;53.97;;;31.20;;
53751;SDS011;41095;53.090;6.692;2022-12-10T04:32:02;47.13;;;30.00;;
53751;SDS011;41095;53.090;6.692;2022-12-10T04:34:28;46.67;;;30.17;;
53751;SDS011;41095;53.090;6.692;2022-12-10T04:36:53;55.50;;;33.63;;
53751;SDS011;41095;53.090;6.692;2022-12-10T04:39:20;53.38;;;30.70;;
53751;SDS011;41095;53.090;6.692;2022-12-10T04:41:46;52.50;;;31.52;;
53751;SDS011;41095;53.090;6.692;2022-12-10T04:44:13;46.03;;;28.23;;
53751;SDS011;41095;53.090;6.692;2022-12-10T04:46:39;50.42;;;31.00;;
53751;SDS011;41095;53.090;6.692;2022-12-10T04:49:04;42.88;;;27.70;;
53751;SDS011;41095;53.090;6.692;2022-12-10T04:51:31;50.50;;;30.90;;
53751;SDS011;41095;53.090;6.692;2022-12-10T04:53:57;48.58;;;30.60;;
53751;SDS011;41095;53.090;6.692;2022-12-10T04:56:23;55.22;;;30.67;;
53751;SDS011;41095;53.090;6.692;2022-12-10T04:58:49;48.28;;;28.52;;
53751;SDS011;41095;53.090;6.692;2022-12-10T05:01:15;51.80;;;31.30;;
53751;SDS011;41095;53.090;6.692;2022-12-10T05:03:41;51.95;;;30.35;;
53751;SDS011;41095;53.090;6.692;2022-12-10T05:06:07;43.20;;;26.92;;
53751;SDS011;41095;53.090;6.692;2022-12-10T05:08:36;51.08;;;31.15;;
53751;SDS011;41095;53.090;6.692;2022-12-10T05:11:04;54.28;;;32.25;;
53751;SDS011;41095;53.090;6.692;2022-12-10T05:13:51;48.53;;;29.35;;
53751;SDS011;41095;53.090;6.692;2022-12-10T05:16:18;41.28;;;26.63;;
53751;SDS011;41095;53.090;6.692;2022-12-10T05:18:45;57.15;;;33.13;;
53751;SDS011;41095;53.090;6.692;2022-12-10T05:21:11;55.80;;;33.00;;
53751;SDS011;41095;53.090;6.692;2022-12-10T05:23:40;53.53;;;31.48;;
53751;SDS011;41095;53.090;6.692;2022-12-10T05:26:09;50.88;;;30.85;;
53751;SDS011;41095;53.090;6.692;2022-12-10T05:28:36;53.03;;;31.50;;
53751;SDS011;41095;53.090;6.692;2022-12-10T05:31:03;49.90;;;31.67;;
53751;SDS011;41095;53.090;6.692;2022-12-10T05:33:30;48.65;;;26.73;;
53751;SDS011;41095;53.090;6.692;2022-12-10T05:35:57;53.90;;;30.45;;
53751;SDS011;41095;53.090;6.692;2022-12-10T05:38:25;49.13;;;29.48;;
53751;SDS011;41095;53.090;6.692;2022-12-10T05:40:52;51.92;;;29.80;;
53751;SDS011;41095;53.090;6.692;2022-12-10T05:43:19;49.60;;;28.88;;
53751;SDS011;41095;53.090;6.692;2022-12-10T05:45:45;59.08;;;34.00;;
53751;SDS011;41095;53.090;6.692;2022-12-10T05:48:11;47.78;;;29.50;;
53751;SDS011;41095;53.090;6.692;2022-12-10T05:50:39;56.55;;;32.70;;
53751;SDS011;41095;53.090;6.692;2022-12-10T05:53:05;48.42;;;28.60;;
53751;SDS011;41095;53.090;6.692;2022-12-10T05:55:30;52.05;;;31.73;;
53751;SDS011;41095;53.090;6.692;2022-12-10T05:57:58;59.70;;;34.95;;
53751;SDS011;41095;53.090;6.692;2022-12-10T06:00:24;52.53;;;33.08;;
53751;SDS011;41095;53.090;6.692;2022-12-10T06:02:51;58.15;;;33.45;;
53751;SDS011;41095;53.090;6.692;2022-12-10T06:05:17;53.20;;;32.65;;
53751;SDS011;41095;53.090;6.692;2022-12-10T06:07:43;57.58;;;31.65;;
53751;SDS011;41095;53.090;6.692;2022-12-10T06:10:09;45.50;;;29.88;;
53751;SDS011;41095;53.090;6.692;2022-12-10T06:12:35;52.47;;;32.15;;
53751;SDS011;41095;53.090;6.692;2022-12-10T06:15:01;48.85;;;30.50;;
53751;SDS011;41095;53.090;6.692;2022-12-10T06:17:27;52.20;;;31.05;;
53751;SDS011;41095;53.090;6.692;2022-12-10T06:19:53;54.33;;;31.05;;
53751;SDS011;41095;53.090;6.692;2022-12-10T06:22:18;52.97;;;31.38;;
53751;SDS011;41095;53.090;6.692;2022-12-10T06:24:44;56.50;;;34.78;;
53751;SDS011;41095;53.090;6.692;2022-12-10T06:27:10;55.60;;;32.05;;
53751;SDS011;41095;53.090;6.692;2022-12-10T06:29:35;59.03;;;34.95;;
53751;SDS011;41095;53.090;6.692;2022-12-10T06:32:01;56.50;;;34.38;;
53751;SDS011;41095;53.090;6.692;2022-12-10T06:34:27;65.07;;;36.65;;
53751;SDS011;41095;53.090;6.692;2022-12-10T06:36:53;53.83;;;31.98;;
53751;SDS011;41095;53.090;6.692;2022-12-10T06:39:18;60.78;;;37.97;;
53751;SDS011;41095;53.090;6.692;2022-12-10T06:41:44;53.47;;;34.88;;
53751;SDS011;41095;53.090;6.692;2022-12-10T06:44:11;57.97;;;35.05;;
53751;SDS011;41095;53.090;6.692;2022-12-10T06:46:38;59.40;;;36.10;;
53751;SDS011;41095;53.090;6.692;2022-12-10T06:49:05;64.55;;;39.13;;
53751;SDS011;41095;53.090;6.692;2022-12-10T06:51:31;67.72;;;37.17;;
53751;SDS011;41095;53.090;6.692;2022-12-10T06:53:57;69.22;;;39.28;;
53751;SDS011;41095;53.090;6.692;2022-12-10T06:56:23;57.35;;;35.45;;
53751;SDS011;41095;53.090;6.692;2022-12-10T06:58:49;64.82;;;36.97;;
53751;SDS011;41095;53.090;6.692;2022-12-10T07:01:16;59.03;;;34.30;;
53751;SDS011;41095;53.090;6.692;2022-12-10T07:03:47;63.67;;;37.17;;
53751;SDS011;41095;53.090;6.692;2022-12-10T07:06:17;55.03;;;35.10;;
53751;SDS011;41095;53.090;6.692;2022-12-10T07:08:44;67.03;;;38.63;;
53751;SDS011;41095;53.090;6.692;2022-12-10T07:11:10;63.53;;;36.60;;
53751;SDS011;41095;53.090;6.692;2022-12-10T07:13:38;66.45;;;39.38;;
53751;SDS011;41095;53.090;6.692;2022-12-10T07:16:11;62.05;;;36.83;;
53751;SDS011;41095;53.090;6.692;2022-12-10T07:18:38;70.43;;;38.28;;
53751;SDS011;41095;53.090;6.692;2022-12-10T07:24:06;58.72;;;36.83;;
53751;SDS011;41095;53.090;6.692;2022-12-10T07:26:35;77.20;;;41.70;;
53751;SDS011;41095;53.090;6.692;2022-12-10T07:29:04;58.20;;;36.00;;
53751;SDS011;41095;53.090;6.692;2022-12-10T07:31:31;65.68;;;36.63;;
53751;SDS011;41095;53.090;6.692;2022-12-10T07:33:57;69.28;;;37.33;;
53751;SDS011;41095;53.090;6.692;2022-12-10T07:36:24;65.05;;;38.58;;
53751;SDS011;41095;53.090;6.692;2022-12-10T07:38:51;75.72;;;39.28;;
53751;SDS011;41095;53.090;6.692;2022-12-10T07:41:17;65.53;;;37.45;;
53751;SDS011;41095;53.090;6.692;2022-12-10T07:43:44;67.28;;;38.55;;
53751;SDS011;41095;53.090;6.692;2022-12-10T07:46:18;65.13;;;35.00;;
53751;SDS011;41095;53.090;6.692;2022-12-10T07:48:49;61.83;;;34.97;;
53751;SDS011;41095;53.090;6.692;2022-12-10T07:51:16;62.70;;;35.78;;
53751;SDS011;41095;53.090;6.692;2022-12-10T07:53:43;66.80;;;38.58;;
53751;SDS011;41095;53.090;6.692;2022-12-10T07:56:08;71.68;;;42.65;;
53751;SDS011;41095;53.090;6.692;2022-12-10T07:58:35;63.25;;;39.75;;
53751;SDS011;41095;53.090;6.692;2022-12-10T08:01:07;60.13;;;38.08;;
53751;SDS011;41095;53.090;6.692;2022-12-10T08:03:34;69.80;;;38.40;;
53751;SDS011;41095;53.090;6.692;2022-12-10T08:06:04;65.78;;;38.97;;
53751;SDS011;41095;53.090;6.692;2022-12-10T08:08:34;62.55;;;39.20;;
53751;SDS011;41095;53.090;6.692;2022-12-10T08:11:02;70.30;;;42.05;;
53751;SDS011;41095;53.090;6.692;2022-12-10T08:13:28;67.90;;;38.95;;
53751;SDS011;41095;53.090;6.692;2022-12-10T08:15:59;67.18;;;38.15;;
53751;SDS011;41095;53.090;6.692;2022-12-10T08:18:27;62.85;;;39.92;;
53751;SDS011;41095;53.090;6.692;2022-12-10T08:20:52;74.75;;;41.60;;
53751;SDS011;41095;53.090;6.692;2022-12-10T08:23:18;63.75;;;38.28;;
53751;SDS011;41095;53.090;6.692;2022-12-10T08:25:44;57.05;;;34.15;;
53751;SDS011;41095;53.090;6.692;2022-12-10T08:28:09;64.93;;;40.60;;
53751;SDS011;41095;53.090;6.692;2022-12-10T08:30:35;67.68;;;41.05;;
53751;SDS011;41095;53.090;6.692;2022-12-10T08:33:01;66.07;;;39.97;;
53751;SDS011;41095;53.090;6.692;2022-12-10T08:35:28;70.05;;;39.63;;
53751;SDS011;41095;53.090;6.692;2022-12-10T08:37:53;70.70;;;40.10;;
53751;SDS011;41095;53.090;6.692;2022-12-10T08:40:19;69.20;;;41.03;;
53751;SDS011;41095;53.090;6.692;2022-12-10T08:42:45;64.63;;;38.83;;
53751;SDS011;41095;53.090;6.692;2022-12-10T08:45:10;67.50;;;41.03;;
53751;SDS011;41095;53.090;6.692;2022-12-10T08:47:36;67.13;;;40.90;;
53751;SDS011;41095;53.090;6.692;2022-12-10T08:50:02;69.50;;;42.00;;
53751;SDS011;41095;53.090;6.692;2022-12-10T08:52:29;63.83;;;38.78;;
53751;SDS011;41095;53.090;6.692;2022-12-10T08:54:55;63.10;;;39.40;;
53751;SDS011;41095;53.090;6.692;2022-12-10T08:57:20;56.75;;;33.10;;
53751;SDS011;41095;53.090;6.692;2022-12-10T08:59:46;66.40;;;36.88;;
53751;SDS011;41095;53.090;6.692;2022-12-10T09:02:12;69.97;;;41.28;;
53751;SDS011;41095;53.090;6.692;2022-12-10T09:04:37;60.03;;;36.90;;
53751;SDS011;41095;53.090;6.692;2022-12-10T09:07:04;60.45;;;38.60;;
53751;SDS011;41095;53.090;6.692;2022-12-10T09:09:30;63.95;;;40.25;;
53751;SDS011;41095;53.090;6.692;2022-12-10T09:11:57;60.33;;;37.15;;
53751;SDS011;41095;53.090;6.692;2022-12-10T09:14:23;60.85;;;37.97;;
53751;SDS011;41095;53.090;6.692;2022-12-10T09:16:49;63.05;;;38.85;;
53751;SDS011;41095;53.090;6.692;2022-12-10T09:19:15;62.63;;;38.40;;
53751;SDS011;41095;53.090;6.692;2022-12-10T09:21:41;64.85;;;38.83;;
53751;SDS011;41095;53.090;6.692;2022-12-10T09:24:06;59.95;;;38.83;;
53751;SDS011;41095;53.090;6.692;2022-12-10T09:26:33;60.55;;;37.83;;
53751;SDS011;41095;53.090;6.692;2022-12-10T09:28:58;60.80;;;37.47;;
53751;SDS011;41095;53.090;6.692;2022-12-10T09:31:25;69.25;;;41.20;;
53751;SDS011;41095;53.090;6.692;2022-12-10T09:33:51;68.95;;;39.75;;
53751;SDS011;41095;53.090;6.692;2022-12-10T09:36:18;68.25;;;37.53;;
53751;SDS011;41095;53.090;6.692;2022-12-10T09:38:44;62.40;;;37.90;;
53751;SDS011;41095;53.090;6.692;2022-12-10T09:41:27;56.45;;;32.85;;
53751;SDS011;41095;53.090;6.692;2022-12-10T09:46:57;57.40;;;34.05;;
53751;SDS011;41095;53.090;6.692;2022-12-10T09:52:13;67.30;;;39.92;;
53751;SDS011;41095;53.090;6.692;2022-12-10T09:54:44;62.53;;;35.90;;
53751;SDS011;41095;53.090;6.692;2022-12-10T09:57:30;63.67;;;36.28;;
53751;SDS011;41095;53.090;6.692;2022-12-10T10:00:00;69.30;;;39.42;;
53751;SDS011;41095;53.090;6.692;2022-12-10T10:02:50;63.03;;;34.30;;
53751;SDS011;41095;53.090;6.692;2022-12-10T10:05:21;66.43;;;35.45;;
53751;SDS011;41095;53.090;6.692;2022-12-10T10:07:51;56.00;;;37.20;;
53751;SDS011;41095;53.090;6.692;2022-12-10T10:10:26;53.33;;;33.72;;
53751;SDS011;41095;53.090;6.692;2022-12-10T10:12:55;61.92;;;36.22;;
53751;SDS011;41095;53.090;6.692;2022-12-10T10:15:30;57.40;;;35.60;;
53751;SDS011;41095;53.090;6.692;2022-12-10T10:17:58;58.25;;;35.22;;
53751;SDS011;41095;53.090;6.692;2022-12-10T10:20:28;63.67;;;37.50;;
53751;SDS011;41095;53.090;6.692;2022-12-10T10:22:55;68.57;;;38.33;;
53751;SDS011;41095;53.090;6.692;2022-12-10T10:25:23;75.55;;;42.72;;
53751;SDS011;41095;53.090;6.692;2022-12-10T10:27:49;68.63;;;40.50;;
53751;SDS011;41095;53.090;6.692;2022-12-10T10:30:19;66.25;;;35.88;;
53751;SDS011;41095;53.090;6.692;2022-12-10T10:32:47;71.60;;;39.35;;
53751;SDS011;41095;53.090;6.692;2022-12-10T10:35:21;69.95;;;39.25;;
53751;SDS011;41095;53.090;6.692;2022-12-10T10:38:05;62.63;;;39.83;;
53751;SDS011;41095;53.090;6.692;2022-12-10T10:43:04;71.32;;;39.63;;
53751;SDS011;41095;53.090;6.692;2022-12-10T10:48:31;67.18;;;37.42;;
53751;SDS011;41095;53.090;6.692;2022-12-10T10:50:54;66.37;;;38.30;;
53751;SDS011;41095;53.090;6.692;2022-12-10T10:53:31;70.13;;;44.80;;
53751;SDS011;41095;53.090;6.692;2022-12-10T10:56:15;60.65;;;39.17;;
53751;SDS011;41095;53.090;6.692;2022-12-10T11:01:18;60.88;;;41.15;;
53751;SDS011;41095;53.090;6.692;2022-12-10T11:03:49;69.47;;;41.42;;
53751;SDS011;41095;53.090;6.692;2022-12-10T11:06:19;69.18;;;39.78;;
53751;SDS011;41095;53.090;6.692;2022-12-10T11:08:46;66.43;;;41.17;;
53751;SDS011;41095;53.090;6.692;2022-12-10T11:11:17;69.80;;;41.83;;
53751;SDS011;41095;53.090;6.692;2022-12-10T11:14:23;62.50;;;37.88;;
53751;SDS011;41095;53.090;6.692;2022-12-10T11:16:52;58.05;;;35.75;;
53751;SDS011;41095;53.090;6.692;2022-12-10T11:19:26;68.88;;;41.70;;
53751;SDS011;41095;53.090;6.692;2022-12-10T11:21:52;57.75;;;37.08;;
53751;SDS011;41095;53.090;6.692;2022-12-10T11:24:19;64.47;;;40.53;;
53751;SDS011;41095;53.090;6.692;2022-12-10T11:40:09;59.28;;;34.80;;
53751;SDS011;41095;53.090;6.692;2022-12-10T11:45:20;60.72;;;36.75;;
53751;SDS011;41095;53.090;6.692;2022-12-10T11:51:03;61.38;;;34.72;;
53751;SDS011;41095;53.090;6.692;2022-12-10T11:53:57;51.25;;;32.40;;
53751;SDS011;41095;53.090;6.692;2022-12-10T11:56:40;53.67;;;37.83;;
53751;SDS011;41095;53.090;6.692;2022-12-10T12:09:54;59.95;;;38.30;;
53751;SDS011;41095;53.090;6.692;2022-12-10T12:17:21;51.65;;;31.95;;
53751;SDS011;41095;53.090;6.692;2022-12-10T12:19:54;63.25;;;37.55;;
53751;SDS011;41095;53.090;6.692;2022-12-10T12:22:37;57.05;;;34.38;;
53751;SDS011;41095;53.090;6.692;2022-12-10T12:25:14;56.45;;;34.55;;
53751;SDS011;41095;53.090;6.692;2022-12-10T12:27:55;54.45;;;32.92;;
53751;SDS011;41095;53.090;6.692;2022-12-10T12:30:28;52.78;;;31.70;;
53751;SDS011;41095;53.090;6.692;2022-12-10T12:32:59;54.40;;;33.40;;
53751;SDS011;41095;53.090;6.692;2022-12-10T12:38:06;62.15;;;34.50;;
53751;SDS011;41095;53.090;6.692;2022-12-10T12:41:16;57.42;;;32.88;;
53751;SDS011;41095;53.090;6.692;2022-12-10T12:44:09;55.45;;;36.90;;
53751;SDS011;41095;53.090;6.692;2022-12-10T12:46:44;54.75;;;33.53;;
53751;SDS011;41095;53.090;6.692;2022-12-10T12:51:56;55.03;;;34.47;;
53751;SDS011;41095;53.090;6.692;2022-12-10T12:54:25;49.22;;;30.58;;
53751;SDS011;41095;53.090;6.692;2022-12-10T13:05:20;46.45;;;28.85;;
53751;SDS011;41095;53.090;6.692;2022-12-10T13:13:40;42.20;;;27.05;;
53751;SDS011;41095;53.090;6.692;2022-12-10T13:24:18;42.05;;;25.08;;
53751;SDS011;41095;53.090;6.692;2022-12-10T13:37:33;46.03;;;28.85;;
53751;SDS011;41095;53.090;6.692;2022-12-10T13:49:00;38.70;;;25.63;;
53751;SDS011;41095;53.090;6.692;2022-12-10T13:54:19;35.72;;;24.60;;
53751;SDS011;41095;53.090;6.692;2022-12-10T14:02:18;40.88;;;25.50;;
53751;SDS011;41095;53.090;6.692;2022-12-10T14:08:02;39.00;;;23.10;;
53751;SDS011;41095;53.090;6.692;2022-12-10T14:10:31;36.80;;;24.92;;
53751;SDS011;41095;53.090;6.692;2022-12-10T14:13:01;41.63;;;25.33;;
53751;SDS011;41095;53.090;6.692;2022-12-10T14:15:28;34.42;;;24.58;;
53751;SDS011;41095;53.090;6.692;2022-12-10T14:17:59;43.58;;;28.80;;
53751;SDS011;41095;53.090;6.692;2022-12-10T14:20:28;39.17;;;24.30;;
53751;SDS011;41095;53.090;6.692;2022-12-10T14:22:56;47.03;;;29.23;;
53751;SDS011;41095;53.090;6.692;2022-12-10T14:25:46;40.83;;;25.52;;
53751;SDS011;41095;53.090;6.692;2022-12-10T14:28:13;42.28;;;25.77;;
53751;SDS011;41095;53.090;6.692;2022-12-10T14:30:42;40.92;;;27.83;;
53751;SDS011;41095;53.090;6.692;2022-12-10T14:33:10;38.00;;;26.38;;
53751;SDS011;41095;53.090;6.692;2022-12-10T14:35:40;42.90;;;24.50;;
53751;SDS011;41095;53.090;6.692;2022-12-10T14:38:12;38.08;;;24.08;;
53751;SDS011;41095;53.090;6.692;2022-12-10T14:40:44;38.08;;;24.00;;
53751;SDS011;41095;53.090;6.692;2022-12-10T14:43:12;41.45;;;26.33;;
53751;SDS011;41095;53.090;6.692;2022-12-10T14:45:53;35.92;;;21.95;;
53751;SDS011;41095;53.090;6.692;2022-12-10T14:48:22;40.15;;;23.27;;
53751;SDS011;41095;53.090;6.692;2022-12-10T14:50:49;50.97;;;28.98;;
53751;SDS011;41095;53.090;6.692;2022-12-10T14:53:17;40.30;;;25.40;;
53751;SDS011;41095;53.090;6.692;2022-12-10T14:55:52;34.67;;;22.63;;
53751;SDS011;41095;53.090;6.692;2022-12-10T14:58:29;38.03;;;24.40;;
53751;SDS011;41095;53.090;6.692;2022-12-10T15:01:28;40.35;;;25.05;;
53751;SDS011;41095;53.090;6.692;2022-12-10T15:03:57;39.40;;;23.52;;
53751;SDS011;41095;53.090;6.692;2022-12-10T15:06:25;45.28;;;26.27;;
53751;SDS011;41095;53.090;6.692;2022-12-10T15:08:53;38.88;;;24.23;;
53751;SDS011;41095;53.090;6.692;2022-12-10T15:11:21;40.17;;;26.42;;
53751;SDS011;41095;53.090;6.692;2022-12-10T15:13:49;41.92;;;24.60;;
53751;SDS011;41095;53.090;6.692;2022-12-10T15:16:20;45.70;;;27.80;;
53751;SDS011;41095;53.090;6.692;2022-12-10T15:19:57;48.17;;;29.15;;
53751;SDS011;41095;53.090;6.692;2022-12-10T15:21:54;51.15;;;28.95;;
53751;SDS011;41095;53.090;6.692;2022-12-10T15:27:15;52.67;;;29.08;;
53751;SDS011;41095;53.090;6.692;2022-12-10T15:29:42;51.38;;;28.48;;
53751;SDS011;41095;53.090;6.692;2022-12-10T15:32:15;57.80;;;35.28;;
53751;SDS011;41095;53.090;6.692;2022-12-10T15:34:57;57.20;;;34.22;;
53751;SDS011;41095;53.090;6.692;2022-12-10T15:37:25;65.20;;;36.92;;
53751;SDS011;41095;53.090;6.692;2022-12-10T15:40:00;62.85;;;35.15;;
53751;SDS011;41095;53.090;6.692;2022-12-10T15:45:48;64.05;;;38.92;;
53751;SDS011;41095;53.090;6.692;2022-12-10T15:48:06;54.72;;;32.20;;
53751;SDS011;41095;53.090;6.692;2022-12-10T15:50:34;62.15;;;30.65;;
53751;SDS011;41095;53.090;6.692;2022-12-10T15:53:00;61.17;;;37.67;;
53751;SDS011;41095;53.090;6.692;2022-12-10T15:55:26;61.45;;;35.97;;
53751;SDS011;41095;53.090;6.692;2022-12-10T15:57:52;64.55;;;37.72;;
53751;SDS011;41095;53.090;6.692;2022-12-10T16:00:24;65.05;;;35.35;;
53751;SDS011;41095;53.090;6.692;2022-12-10T16:02:58;63.03;;;34.53;;
53751;SDS011;41095;53.090;6.692;2022-12-10T16:05:32;64.95;;;34.13;;
53751;SDS011;41095;53.090;6.692;2022-12-10T16:08:23;61.45;;;34.25;;
53751;SDS011;41095;53.090;6.692;2022-12-10T16:10:53;57.38;;;31.88;;
53751;SDS011;41095;53.090;6.692;2022-12-10T16:15:58;52.85;;;28.20;;
53751;SDS011;41095;53.090;6.692;2022-12-10T16:18:31;52.28;;;32.40;;
53751;SDS011;41095;53.090;6.692;2022-12-10T16:20:56;62.35;;;36.85;;
53751;SDS011;41095;53.090;6.692;2022-12-10T16:23:22;63.88;;;38.40;;
53751;SDS011;41095;53.090;6.692;2022-12-10T16:25:47;64.38;;;37.17;;
53751;SDS011;41095;53.090;6.692;2022-12-10T16:28:15;68.07;;;38.60;;
53751;SDS011;41095;53.090;6.692;2022-12-10T16:33:16;84.32;;;43.92;;
53751;SDS011;41095;53.090;6.692;2022-12-10T16:35:43;91.07;;;44.00;;
53751;SDS011;41095;53.090;6.692;2022-12-10T16:38:09;86.15;;;44.65;;
53751;SDS011;41095;53.090;6.692;2022-12-10T16:40:35;84.30;;;45.97;;
53751;SDS011;41095;53.090;6.692;2022-12-10T16:43:01;81.90;;;43.72;;
53751;SDS011;41095;53.090;6.692;2022-12-10T16:45:33;90.88;;;45.17;;
53751;SDS011;41095;53.090;6.692;2022-12-10T16:48:01;81.82;;;43.78;;
53751;SDS011;41095;53.090;6.692;2022-12-10T16:50:28;92.78;;;44.63;;
53751;SDS011;41095;53.090;6.692;2022-12-10T16:52:55;82.57;;;44.35;;
53751;SDS011;41095;53.090;6.692;2022-12-10T16:55:22;88.03;;;42.65;;
53751;SDS011;41095;53.090;6.692;2022-12-10T16:57:50;78.65;;;40.40;;